sensor_id;sensor_type;location;lat;lon;timestamp;pressure;altitude;pressure_sealevel;temperature;humidity
5952;BME280;3001;42.622;23.194;2023-05-01T00:01:55;91288.88;;;12.27;84.98
5952;BME280;3001;42.622;23.194;2023-05-01T00:04:21;91296.69;;;12.27;84.38
5952;BME280;3001;42.622;23.194;2023-05-01T00:06:48;91290.84;;;12.30;84.59
5952;BME280;3001;42.622;23.194;2023-05-01T00:09:15;91291.81;;;12.25;84.85
5952;BME280;3001;42.622;23.194;2023-05-01T00:11:44;91292.25;;;12.27;84.61
5952;BME280;3001;42.622;23.194;2023-05-01T00:14:11;91296.06;;;12.30;83.94
5952;BME280;3001;42.622;23.194;2023-05-01T00:16:37;91296.97;;;12.34;83.27
5952;BME280;3001;42.622;23.194;2023-05-01T00:19:04;91291.84;;;12.08;84.38
5952;BME280;3001;42.622;23.194;2023-05-01T00:21:31;91292.28;;;12.02;85.15
5952;BME280;3001;42.622;23.194;2023-05-01T00:23:57;91292.56;;;12.26;84.90
5952;BME280;3001;42.622;23.194;2023-05-01T00:26:24;91287.06;;;12.10;85.24
5952;BME280;3001;42.622;23.194;2023-05-01T00:28:56;91294.13;;;11.93;85.77
5952;BME280;3001;42.622;23.194;2023-05-01T00:31:23;91292.91;;;11.99;86.09
5952;BME280;3001;42.622;23.194;2023-05-01T00:33:50;91297.16;;;12.03;86.27
5952;BME280;3001;42.622;23.194;2023-05-01T00:36:16;91298.06;;;12.24;85.03
5952;BME280;3001;42.622;23.194;2023-05-01T00:38:43;91299.47;;;12.05;85.64
5952;BME280;3001;42.622;23.194;2023-05-01T00:41:10;91303.16;;;12.04;86.28
5952;BME280;3001;42.622;23.194;2023-05-01T00:43:37;91307.28;;;12.05;85.58
5952;BME280;3001;42.622;23.194;2023-05-01T00:46:06;91310.50;;;12.10;85.32
5952;BME280;3001;42.622;23.194;2023-05-01T00:48:33;91312.03;;;12.11;85.46
5952;BME280;3001;42.622;23.194;2023-05-01T00:51:00;91314.94;;;12.18;84.28
5952;BME280;3001;42.622;23.194;2023-05-01T00:53:32;91308.63;;;12.28;84.15
5952;BME280;3001;42.622;23.194;2023-05-01T00:55:59;91309.44;;;12.20;84.04
5952;BME280;3001;42.622;23.194;2023-05-01T00:58:26;91311.41;;;12.23;84.07
5952;BME280;3001;42.622;23.194;2023-05-01T01:00:53;91312.50;;;12.05;85.34
5952;BME280;3001;42.622;23.194;2023-05-01T01:03:21;91289.69;;;11.94;84.80
5952;BME280;3001;42.622;23.194;2023-05-01T01:05:52;91320.00;;;12.07;84.91
5952;BME280;3001;42.622;23.194;2023-05-01T01:08:24;91318.16;;;11.99;84.35
5952;BME280;3001;42.622;23.194;2023-05-01T01:10:54;91327.50;;;12.00;84.95
5952;BME280;3001;42.622;23.194;2023-05-01T01:13:28;91323.81;;;12.01;84.58
5952;BME280;3001;42.622;23.194;2023-05-01T01:16:01;91325.97;;;11.99;83.90
5952;BME280;3001;42.622;23.194;2023-05-01T01:18:35;91324.72;;;12.13;83.56
5952;BME280;3001;42.622;23.194;2023-05-01T01:21:07;91323.06;;;12.17;83.08
5952;BME280;3001;42.622;23.194;2023-05-01T01:29:52;91324.44;;;11.89;85.19
5952;BME280;3001;42.622;23.194;2023-05-01T01:32:54;91324.75;;;12.04;83.69
5952;BME280;3001;42.622;23.194;2023-05-01T01:35:25;91330.28;;;12.03;83.51
5952;BME280;3001;42.622;23.194;2023-05-01T01:37:56;91322.47;;;11.78;83.68
5952;BME280;3001;42.622;23.194;2023-05-01T01:40:30;91322.00;;;11.76;83.84
5952;BME280;3001;42.622;23.194;2023-05-01T01:43:03;91328.13;;;11.71;83.77
5952;BME280;3001;42.622;23.194;2023-05-01T01:45:35;91329.81;;;11.76;83.04
5952;BME280;3001;42.622;23.194;2023-05-01T01:48:04;91323.06;;;11.75;83.96
5952;BME280;3001;42.622;23.194;2023-05-01T01:50:36;91307.00;;;11.56;83.84
5952;BME280;3001;42.622;23.194;2023-05-01T01:53:05;91326.13;;;11.68;84.10
5952;BME280;3001;42.622;23.194;2023-05-01T01:55:34;91331.66;;;11.67;84.30
5952;BME280;3001;42.622;23.194;2023-05-01T01:58:02;91325.69;;;11.75;83.88
5952;BME280;3001;42.622;23.194;2023-05-01T02:00:30;91321.38;;;11.79;83.27
5952;BME280;3001;42.622;23.194;2023-05-01T02:02:59;91317.41;;;11.73;83.73
5952;BME280;3001;42.622;23.194;2023-05-01T02:05:27;91317.50;;;11.42;85.98
5952;BME280;3001;42.622;23.194;2023-05-01T02:07:58;91319.66;;;11.49;86.20
5952;BME280;3001;42.622;23.194;2023-05-01T02:10:26;91310.00;;;11.49;85.78
5952;BME280;3001;42.622;23.194;2023-05-01T02:12:55;91308.03;;;11.46;86.50
5952;BME280;3001;42.622;23.194;2023-05-01T02:15:24;91303.13;;;11.45;86.35
5952;BME280;3001;42.622;23.194;2023-05-01T02:17:52;91283.03;;;11.20;86.29
5952;BME280;3001;42.622;23.194;2023-05-01T02:20:21;91315.06;;;11.37;85.69
5952;BME280;3001;42.622;23.194;2023-05-01T02:22:49;91300.81;;;11.26;86.24
5952;BME280;3001;42.622;23.194;2023-05-01T02:25:18;91309.50;;;11.13;86.88
5952;BME280;3001;42.622;23.194;2023-05-01T02:27:47;91306.91;;;11.22;86.31
5952;BME280;3001;42.622;23.194;2023-05-01T02:30:17;91310.59;;;11.29;86.29
5952;BME280;3001;42.622;23.194;2023-05-01T02:32:44;91310.44;;;11.26;85.49
5952;BME280;3001;42.622;23.194;2023-05-01T02:35:10;91301.59;;;11.27;85.07
5952;BME280;3001;42.622;23.194;2023-05-01T02:37:37;91309.06;;;11.37;85.26
5952;BME280;3001;42.622;23.194;2023-05-01T02:40:06;91302.78;;;11.29;85.09
5952;BME280;3001;42.622;23.194;2023-05-01T02:42:34;91305.81;;;11.23;85.36
5952;BME280;3001;42.622;23.194;2023-05-01T02:45:05;91304.16;;;11.18;86.41
5952;BME280;3001;42.622;23.194;2023-05-01T02:47:36;91310.09;;;11.10;86.29
5952;BME280;3001;42.622;23.194;2023-05-01T02:50:04;91301.84;;;11.08;86.98
5952;BME280;3001;42.622;23.194;2023-05-01T02:52:32;91297.41;;;11.09;86.67
5952;BME280;3001;42.622;23.194;2023-05-01T02:55:00;91311.50;;;11.16;86.27
5952;BME280;3001;42.622;23.194;2023-05-01T02:57:28;91306.31;;;11.25;86.50
5952;BME280;3001;42.622;23.194;2023-05-01T02:59:56;91311.66;;;11.28;85.11
5952;BME280;3001;42.622;23.194;2023-05-01T03:02:22;91319.00;;;11.26;84.13
5952;BME280;3001;42.622;23.194;2023-05-01T03:04:49;91313.50;;;11.19;84.30
5952;BME280;3001;42.622;23.194;2023-05-01T03:07:15;91318.09;;;11.22;84.54
5952;BME280;3001;42.622;23.194;2023-05-01T03:09:42;91312.56;;;11.15;84.88
5952;BME280;3001;42.622;23.194;2023-05-01T03:12:09;91319.59;;;11.23;84.94
5952;BME280;3001;42.622;23.194;2023-05-01T03:14:35;91320.66;;;11.14;85.20
5952;BME280;3001;42.622;23.194;2023-05-01T03:17:03;91318.22;;;11.17;84.62
5952;BME280;3001;42.622;23.194;2023-05-01T03:19:30;91316.47;;;10.96;85.48
5952;BME280;3001;42.622;23.194;2023-05-01T03:21:58;91319.25;;;10.99;85.18
5952;BME280;3001;42.622;23.194;2023-05-01T03:24:25;91316.66;;;10.99;85.62
5952;BME280;3001;42.622;23.194;2023-05-01T03:26:52;91325.06;;;10.96;85.93
5952;BME280;3001;42.622;23.194;2023-05-01T03:29:19;91319.97;;;10.83;86.20
5952;BME280;3001;42.622;23.194;2023-05-01T03:31:45;91320.78;;;11.00;85.05
5952;BME280;3001;42.622;23.194;2023-05-01T03:34:13;91322.09;;;10.89;86.38
5952;BME280;3001;42.622;23.194;2023-05-01T03:36:40;91321.66;;;10.96;86.00
5952;BME280;3001;42.622;23.194;2023-05-01T03:39:07;91328.41;;;10.97;85.63
5952;BME280;3001;42.622;23.194;2023-05-01T03:41:34;91324.72;;;10.98;85.94
5952;BME280;3001;42.622;23.194;2023-05-01T03:44:00;91327.94;;;10.95;86.37
5952;BME280;3001;42.622;23.194;2023-05-01T03:46:27;91339.16;;;11.04;85.48
5952;BME280;3001;42.622;23.194;2023-05-01T03:48:54;91326.97;;;11.30;84.48
5952;BME280;3001;42.622;23.194;2023-05-01T03:51:22;91334.59;;;11.18;84.48
5952;BME280;3001;42.622;23.194;2023-05-01T03:53:49;91335.50;;;11.13;84.76
5952;BME280;3001;42.622;23.194;2023-05-01T03:56:16;91333.69;;;11.31;84.90
5952;BME280;3001;42.622;23.194;2023-05-01T03:58:43;91317.16;;;11.18;84.27
5952;BME280;3001;42.622;23.194;2023-05-01T04:01:10;91336.00;;;11.41;84.52
5952;BME280;3001;42.622;23.194;2023-05-01T04:03:36;91337.84;;;11.32;84.39
5952;BME280;3001;42.622;23.194;2023-05-01T04:06:03;91345.19;;;11.30;84.32
5952;BME280;3001;42.622;23.194;2023-05-01T04:08:32;91349.56;;;11.21;84.53
5952;BME280;3001;42.622;23.194;2023-05-01T04:10:58;91343.94;;;11.27;84.41
5952;BME280;3001;42.622;23.194;2023-05-01T04:13:26;91348.84;;;11.29;84.54
5952;BME280;3001;42.622;23.194;2023-05-01T04:15:53;91342.72;;;11.25;84.47
5952;BME280;3001;42.622;23.194;2023-05-01T04:18:20;91349.09;;;11.19;85.25
5952;BME280;3001;42.622;23.194;2023-05-01T04:20:46;91352.16;;;11.21;85.26
5952;BME280;3001;42.622;23.194;2023-05-01T04:23:13;91352.78;;;11.18;85.64
5952;BME280;3001;42.622;23.194;2023-05-01T04:25:41;91340.47;;;10.93;87.16
5952;BME280;3001;42.622;23.194;2023-05-01T04:28:09;91352.91;;;11.13;87.86
5952;BME280;3001;42.622;23.194;2023-05-01T04:30:36;91351.69;;;11.10;88.52
5952;BME280;3001;42.622;23.194;2023-05-01T04:33:03;91352.16;;;11.12;88.91
5952;BME280;3001;42.622;23.194;2023-05-01T04:35:35;91366.59;;;11.27;89.33
5952;BME280;3001;42.622;23.194;2023-05-01T04:38:03;91357.72;;;11.28;89.52
5952;BME280;3001;42.622;23.194;2023-05-01T04:40:30;91358.78;;;11.27;89.56
5952;BME280;3001;42.622;23.194;2023-05-01T04:42:58;91348.06;;;11.28;89.02
5952;BME280;3001;42.622;23.194;2023-05-01T04:45:25;91353.91;;;11.42;87.80
5952;BME280;3001;42.622;23.194;2023-05-01T04:47:52;91357.28;;;11.43;88.40
5952;BME280;3001;42.622;23.194;2023-05-01T04:50:18;91358.06;;;11.43;88.34
5952;BME280;3001;42.622;23.194;2023-05-01T04:52:45;91358.97;;;11.47;87.99
5952;BME280;3001;42.622;23.194;2023-05-01T04:55:12;91361.28;;;11.49;87.98
5952;BME280;3001;42.622;23.194;2023-05-01T04:57:40;91354.69;;;11.51;88.30
5952;BME280;3001;42.622;23.194;2023-05-01T05:00:09;91363.28;;;11.52;88.16
5952;BME280;3001;42.622;23.194;2023-05-01T05:02:36;91361.47;;;11.61;88.52
5952;BME280;3001;42.622;23.194;2023-05-01T05:05:03;91367.47;;;11.70;88.81
5952;BME280;3001;42.622;23.194;2023-05-01T05:07:30;91362.28;;;11.78;87.34
5952;BME280;3001;42.622;23.194;2023-05-01T05:09:56;91372.81;;;11.82;87.57
5952;BME280;3001;42.622;23.194;2023-05-01T05:12:23;91373.00;;;11.94;87.17
5952;BME280;3001;42.622;23.194;2023-05-01T05:14:50;91376.22;;;12.07;86.59
5952;BME280;3001;42.622;23.194;2023-05-01T05:17:18;91377.59;;;12.13;85.88
5952;BME280;3001;42.622;23.194;2023-05-01T05:19:45;91378.66;;;12.12;85.54
5952;BME280;3001;42.622;23.194;2023-05-01T05:22:11;91386.78;;;12.28;86.06
5952;BME280;3001;42.622;23.194;2023-05-01T05:24:38;91387.56;;;12.28;86.24
5952;BME280;3001;42.622;23.194;2023-05-01T05:27:05;91388.75;;;12.39;86.42
5952;BME280;3001;42.622;23.194;2023-05-01T05:29:31;91391.50;;;12.43;86.52
5952;BME280;3001;42.622;23.194;2023-05-01T05:31:59;91400.84;;;12.61;86.88
5952;BME280;3001;42.622;23.194;2023-05-01T05:34:27;91395.47;;;12.57;87.41
5952;BME280;3001;42.622;23.194;2023-05-01T05:36:54;91402.19;;;12.84;87.41
5952;BME280;3001;42.622;23.194;2023-05-01T05:39:20;91404.78;;;12.84;87.73
5952;BME280;3001;42.622;23.194;2023-05-01T05:41:48;91408.31;;;12.96;87.58
5952;BME280;3001;42.622;23.194;2023-05-01T05:44:14;91411.63;;;13.14;86.71
5952;BME280;3001;42.622;23.194;2023-05-01T05:46:41;91409.88;;;13.26;86.70
5952;BME280;3001;42.622;23.194;2023-05-01T05:49:08;91406.03;;;13.32;87.44
5952;BME280;3001;42.622;23.194;2023-05-01T05:51:36;91412.56;;;13.47;87.48
5952;BME280;3001;42.622;23.194;2023-05-01T05:54:03;91415.28;;;13.59;86.77
5952;BME280;3001;42.622;23.194;2023-05-01T05:56:30;91415.56;;;13.86;86.67
5952;BME280;3001;42.622;23.194;2023-05-01T05:58:56;91416.13;;;14.00;86.20
5952;BME280;3001;42.622;23.194;2023-05-01T06:01:27;91412.94;;;14.15;85.74
5952;BME280;3001;42.622;23.194;2023-05-01T06:03:53;91415.72;;;14.39;84.55
5952;BME280;3001;42.622;23.194;2023-05-01T06:06:20;91421.00;;;14.51;84.76
5952;BME280;3001;42.622;23.194;2023-05-01T06:08:48;91423.16;;;14.49;84.71
5952;BME280;3001;42.622;23.194;2023-05-01T06:11:15;91420.22;;;14.71;83.13
5952;BME280;3001;42.622;23.194;2023-05-01T06:13:42;91424.75;;;14.62;83.64
5952;BME280;3001;42.622;23.194;2023-05-01T06:16:09;91418.41;;;14.83;82.64
5952;BME280;3001;42.622;23.194;2023-05-01T06:18:36;91423.81;;;15.11;81.24
5952;BME280;3001;42.622;23.194;2023-05-01T06:21:03;91429.03;;;15.31;80.69
5952;BME280;3001;42.622;23.194;2023-05-01T06:23:29;91427.53;;;15.54;80.47
5952;BME280;3001;42.622;23.194;2023-05-01T06:25:59;91425.91;;;15.73;79.76
5952;BME280;3001;42.622;23.194;2023-05-01T06:28:26;91423.94;;;15.82;79.09
5952;BME280;3001;42.622;23.194;2023-05-01T06:30:52;91437.88;;;16.10;78.02
5952;BME280;3001;42.622;23.194;2023-05-01T06:33:20;91432.88;;;16.17;75.86
5952;BME280;3001;42.622;23.194;2023-05-01T06:35:47;91430.44;;;16.24;75.59
5952;BME280;3001;42.622;23.194;2023-05-01T06:38:14;91428.16;;;16.35;76.16
5952;BME280;3001;42.622;23.194;2023-05-01T06:40:40;91434.34;;;16.30;76.34
5952;BME280;3001;42.622;23.194;2023-05-01T06:43:08;91433.94;;;16.40;75.61
5952;BME280;3001;42.622;23.194;2023-05-01T06:45:35;91431.56;;;16.63;74.89
5952;BME280;3001;42.622;23.194;2023-05-01T06:48:04;91429.50;;;16.68;76.52
5952;BME280;3001;42.622;23.194;2023-05-01T06:50:31;91429.09;;;16.82;76.14
5952;BME280;3001;42.622;23.194;2023-05-01T06:52:57;91437.91;;;17.01;75.27
5952;BME280;3001;42.622;23.194;2023-05-01T06:55:27;91437.97;;;17.05;76.18
5952;BME280;3001;42.622;23.194;2023-05-01T06:57:55;91442.31;;;17.13;73.46
5952;BME280;3001;42.622;23.194;2023-05-01T07:00:23;91440.88;;;17.15;73.56
5952;BME280;3001;42.622;23.194;2023-05-01T07:02:50;91446.13;;;17.15;72.36
5952;BME280;3001;42.622;23.194;2023-05-01T07:05:16;91446.72;;;17.09;72.24
5952;BME280;3001;42.622;23.194;2023-05-01T07:07:43;91446.94;;;17.04;72.67
5952;BME280;3001;42.622;23.194;2023-05-01T07:10:10;91444.84;;;17.09;72.37
5952;BME280;3001;42.622;23.194;2023-05-01T07:12:37;91451.16;;;16.93;71.51
5952;BME280;3001;42.622;23.194;2023-05-01T07:15:04;91449.50;;;17.00;72.41
5952;BME280;3001;42.622;23.194;2023-05-01T07:17:33;91460.66;;;16.97;72.15
5952;BME280;3001;42.622;23.194;2023-05-01T07:20:00;91463.94;;;16.94;73.34
5952;BME280;3001;42.622;23.194;2023-05-01T07:22:29;91469.09;;;16.91;74.86
5952;BME280;3001;42.622;23.194;2023-05-01T07:24:56;91459.78;;;16.93;74.67
5952;BME280;3001;42.622;23.194;2023-05-01T07:27:22;91461.94;;;17.03;73.95
5952;BME280;3001;42.622;23.194;2023-05-01T07:29:49;91458.31;;;17.08;75.04
5952;BME280;3001;42.622;23.194;2023-05-01T07:32:16;91466.06;;;17.16;73.97
5952;BME280;3001;42.622;23.194;2023-05-01T07:34:44;91472.84;;;17.17;73.71
5952;BME280;3001;42.622;23.194;2023-05-01T07:37:10;91465.19;;;17.40;72.97
5952;BME280;3001;42.622;23.194;2023-05-01T07:39:37;91475.28;;;17.53;71.74
5952;BME280;3001;42.622;23.194;2023-05-01T07:42:04;91473.34;;;17.50;72.10
5952;BME280;3001;42.622;23.194;2023-05-01T07:44:30;91473.84;;;17.55;70.95
5952;BME280;3001;42.622;23.194;2023-05-01T07:47:01;91473.97;;;17.74;70.35
5952;BME280;3001;42.622;23.194;2023-05-01T07:49:28;91472.00;;;18.02;71.70
5952;BME280;3001;42.622;23.194;2023-05-01T07:51:56;91458.63;;;18.07;69.81
5952;BME280;3001;42.622;23.194;2023-05-01T07:54:23;91461.56;;;18.06;68.65
5952;BME280;3001;42.622;23.194;2023-05-01T07:56:49;91468.50;;;18.45;69.70
5952;BME280;3001;42.622;23.194;2023-05-01T07:59:16;91465.00;;;18.56;66.15
5952;BME280;3001;42.622;23.194;2023-05-01T08:01:42;91460.25;;;18.81;66.95
5952;BME280;3001;42.622;23.194;2023-05-01T08:04:09;91468.84;;;18.97;67.02
5952;BME280;3001;42.622;23.194;2023-05-01T08:06:36;91461.13;;;19.23;66.22
5952;BME280;3001;42.622;23.194;2023-05-01T08:09:04;91459.44;;;19.33;64.99
5952;BME280;3001;42.622;23.194;2023-05-01T08:11:31;91474.16;;;19.76;62.98
5952;BME280;3001;42.622;23.194;2023-05-01T08:13:57;91470.81;;;20.01;62.02
5952;BME280;3001;42.622;23.194;2023-05-01T08:16:24;91470.66;;;20.13;62.78
5952;BME280;3001;42.622;23.194;2023-05-01T08:18:51;91466.50;;;20.38;60.44
5952;BME280;3001;42.622;23.194;2023-05-01T08:21:17;91464.41;;;20.51;60.74
5952;BME280;3001;42.622;23.194;2023-05-01T08:23:44;91471.59;;;20.50;59.77
5952;BME280;3001;42.622;23.194;2023-05-01T08:26:12;91465.03;;;20.67;58.83
5952;BME280;3001;42.622;23.194;2023-05-01T08:28:39;91469.22;;;20.94;56.83
5952;BME280;3001;42.622;23.194;2023-05-01T08:31:06;91465.72;;;21.15;57.88
5952;BME280;3001;42.622;23.194;2023-05-01T08:33:33;91463.72;;;21.38;57.69
5952;BME280;3001;42.622;23.194;2023-05-01T08:35:59;91466.75;;;21.44;52.68
5952;BME280;3001;42.622;23.194;2023-05-01T08:38:26;91470.47;;;21.36;53.21
5952;BME280;3001;42.622;23.194;2023-05-01T08:40:53;91470.66;;;21.20;53.28
5952;BME280;3001;42.622;23.194;2023-05-01T08:43:24;91479.22;;;21.10;54.41
5952;BME280;3001;42.622;23.194;2023-05-01T08:45:53;91475.19;;;20.91;54.05
5952;BME280;3001;42.622;23.194;2023-05-01T08:48:22;91476.38;;;20.71;54.79
5952;BME280;3001;42.622;23.194;2023-05-01T08:50:54;91469.97;;;20.68;54.43
5952;BME280;3001;42.622;23.194;2023-05-01T08:53:23;91468.69;;;20.59;55.20
5952;BME280;3001;42.622;23.194;2023-05-01T08:55:51;91466.25;;;20.47;55.31
5952;BME280;3001;42.622;23.194;2023-05-01T08:58:18;91459.75;;;20.41;55.61
5952;BME280;3001;42.622;23.194;2023-05-01T09:00:47;91463.16;;;20.41;55.55
5952;BME280;3001;42.622;23.194;2023-05-01T09:03:14;91469.13;;;20.38;55.20
5952;BME280;3001;42.622;23.194;2023-05-01T09:05:42;91472.09;;;20.33;54.41
5952;BME280;3001;42.622;23.194;2023-05-01T09:08:08;91461.44;;;20.26;54.93
5952;BME280;3001;42.622;23.194;2023-05-01T09:10:40;91466.66;;;20.23;56.96
5952;BME280;3001;42.622;23.194;2023-05-01T09:13:07;91472.69;;;20.23;57.22
5952;BME280;3001;42.622;23.194;2023-05-01T09:15:34;91460.66;;;20.26;56.19
5952;BME280;3001;42.622;23.194;2023-05-01T09:18:02;91456.66;;;20.09;55.82
5952;BME280;3001;42.622;23.194;2023-05-01T09:20:30;91467.69;;;20.18;56.58
5952;BME280;3001;42.622;23.194;2023-05-01T09:22:56;91465.09;;;19.99;56.19
5952;BME280;3001;42.622;23.194;2023-05-01T09:25:23;91455.84;;;20.05;57.42
5952;BME280;3001;42.622;23.194;2023-05-01T09:27:51;91463.59;;;20.21;55.16
5952;BME280;3001;42.622;23.194;2023-05-01T09:30:31;91465.19;;;20.25;54.62
5952;BME280;3001;42.622;23.194;2023-05-01T09:33:08;91458.59;;;20.38;55.69
5952;BME280;3001;42.622;23.194;2023-05-01T09:35:49;91456.56;;;20.54;54.59
5952;BME280;3001;42.622;23.194;2023-05-01T09:38:17;91459.97;;;20.55;54.87
5952;BME280;3001;42.622;23.194;2023-05-01T09:40:44;91466.44;;;20.83;53.58
5952;BME280;3001;42.622;23.194;2023-05-01T09:43:12;91427.06;;;20.75;51.84
5952;BME280;3001;42.622;23.194;2023-05-01T09:45:41;91464.88;;;21.11;51.68
5952;BME280;3001;42.622;23.194;2023-05-01T09:48:09;91461.09;;;21.09;50.10
5952;BME280;3001;42.622;23.194;2023-05-01T09:50:37;91461.56;;;21.18;49.36
5952;BME280;3001;42.622;23.194;2023-05-01T09:53:06;91411.06;;;20.90;49.76
5952;BME280;3001;42.622;23.194;2023-05-01T09:55:33;91456.69;;;21.20;50.03
5952;BME280;3001;42.622;23.194;2023-05-01T09:58:00;91451.59;;;21.05;50.36
5952;BME280;3001;42.622;23.194;2023-05-01T10:00:27;91452.66;;;21.00;50.93
5952;BME280;3001;42.622;23.194;2023-05-01T10:02:54;91448.81;;;20.94;50.66
5952;BME280;3001;42.622;23.194;2023-05-01T10:05:22;91438.03;;;20.80;52.63
5952;BME280;3001;42.622;23.194;2023-05-01T10:07:56;91446.09;;;20.87;52.96
5952;BME280;3001;42.622;23.194;2023-05-01T10:10:23;91441.31;;;20.96;54.27
5952;BME280;3001;42.622;23.194;2023-05-01T10:12:50;91446.25;;;21.01;54.14
5952;BME280;3001;42.622;23.194;2023-05-01T10:15:17;91430.13;;;21.06;50.53
5952;BME280;3001;42.622;23.194;2023-05-01T10:17:44;91442.34;;;21.21;49.99
5952;BME280;3001;42.622;23.194;2023-05-01T10:20:12;91432.94;;;21.23;52.68
5952;BME280;3001;42.622;23.194;2023-05-01T10:22:40;91442.13;;;21.33;51.05
5952;BME280;3001;42.622;23.194;2023-05-01T10:25:07;91444.41;;;21.34;50.04
5952;BME280;3001;42.622;23.194;2023-05-01T10:27:37;91433.34;;;21.25;50.35
5952;BME280;3001;42.622;23.194;2023-05-01T10:30:07;91438.69;;;21.32;49.31
5952;BME280;3001;42.622;23.194;2023-05-01T10:32:35;91427.38;;;21.32;51.31
5952;BME280;3001;42.622;23.194;2023-05-01T10:35:06;91430.59;;;21.48;53.19
5952;BME280;3001;42.622;23.194;2023-05-01T10:37:38;91433.09;;;21.70;50.61
5952;BME280;3001;42.622;23.194;2023-05-01T10:43:21;91450.19;;;22.74;47.12
5952;BME280;3001;42.622;23.194;2023-05-01T10:45:51;91439.13;;;22.65;47.19
5952;BME280;3001;42.622;23.194;2023-05-01T10:48:55;91454.38;;;22.78;47.93
5952;BME280;3001;42.622;23.194;2023-05-01T10:51:23;91443.06;;;22.88;44.45
5952;BME280;3001;42.622;23.194;2023-05-01T10:54:21;91427.34;;;23.26;45.00
5952;BME280;3001;42.622;23.194;2023-05-01T10:56:48;91432.38;;;23.56;47.38
5952;BME280;3001;42.622;23.194;2023-05-01T10:59:16;91439.66;;;23.83;47.38
5952;BME280;3001;42.622;23.194;2023-05-01T11:01:44;91439.28;;;23.99;47.15
5952;BME280;3001;42.622;23.194;2023-05-01T11:04:48;91444.63;;;24.02;45.31
5952;BME280;3001;42.622;23.194;2023-05-01T11:07:21;91427.19;;;24.15;43.28
5952;BME280;3001;42.622;23.194;2023-05-01T11:09:50;91444.25;;;24.32;43.05
5952;BME280;3001;42.622;23.194;2023-05-01T11:12:47;91447.69;;;24.22;38.55
5952;BME280;3001;42.622;23.194;2023-05-01T11:15:27;91449.16;;;23.91;36.60
5952;BME280;3001;42.622;23.194;2023-05-01T11:17:55;91449.84;;;23.74;39.51
5952;BME280;3001;42.622;23.194;2023-05-01T11:23:26;91443.09;;;24.08;41.91
5952;BME280;3001;42.622;23.194;2023-05-01T11:26:02;91445.00;;;24.18;39.88
5952;BME280;3001;42.622;23.194;2023-05-01T11:28:30;91440.47;;;24.05;41.75
5952;BME280;3001;42.622;23.194;2023-05-01T11:30:59;91443.47;;;24.03;42.75
5952;BME280;3001;42.622;23.194;2023-05-01T11:33:26;91439.69;;;23.87;44.49
5952;BME280;3001;42.622;23.194;2023-05-01T11:36:00;91426.31;;;23.62;43.02
5952;BME280;3001;42.622;23.194;2023-05-01T11:38:29;91439.97;;;23.57;42.68
5952;BME280;3001;42.622;23.194;2023-05-01T11:41:00;91437.31;;;23.50;42.51
5952;BME280;3001;42.622;23.194;2023-05-01T11:43:28;91432.69;;;23.37;43.09
5952;BME280;3001;42.622;23.194;2023-05-01T11:45:56;91435.25;;;23.16;43.32
5952;BME280;3001;42.622;23.194;2023-05-01T11:48:28;91441.59;;;22.97;44.45
5952;BME280;3001;42.622;23.194;2023-05-01T11:50:56;91442.34;;;22.94;45.17
5952;BME280;3001;42.622;23.194;2023-05-01T11:53:22;91437.19;;;22.55;46.05
5952;BME280;3001;42.622;23.194;2023-05-01T11:55:49;91423.19;;;22.54;45.71
5952;BME280;3001;42.622;23.194;2023-05-01T11:58:16;91430.34;;;22.50;47.82
5952;BME280;3001;42.622;23.194;2023-05-01T12:00:43;91428.59;;;22.75;46.71
5952;BME280;3001;42.622;23.194;2023-05-01T12:03:11;91423.34;;;22.86;48.06
5952;BME280;3001;42.622;23.194;2023-05-01T12:05:40;91417.13;;;23.18;47.79
5952;BME280;3001;42.622;23.194;2023-05-01T12:08:09;91424.38;;;23.31;47.20
5952;BME280;3001;42.622;23.194;2023-05-01T12:10:37;91429.63;;;23.21;46.52
5952;BME280;3001;42.622;23.194;2023-05-01T12:13:05;91433.78;;;23.22;46.51
5952;BME280;3001;42.622;23.194;2023-05-01T12:15:35;91428.38;;;23.04;45.67
5952;BME280;3001;42.622;23.194;2023-05-01T12:18:02;91437.75;;;22.85;46.20
5952;BME280;3001;42.622;23.194;2023-05-01T12:20:41;91431.16;;;22.58;45.24
5952;BME280;3001;42.622;23.194;2023-05-01T12:23:09;91432.13;;;22.36;46.80
5952;BME280;3001;42.622;23.194;2023-05-01T12:25:37;91444.09;;;22.19;46.95
5952;BME280;3001;42.622;23.194;2023-05-01T12:28:08;91438.38;;;22.14;46.55
5952;BME280;3001;42.622;23.194;2023-05-01T12:30:36;91439.25;;;21.85;45.06
5952;BME280;3001;42.622;23.194;2023-05-01T12:33:08;91437.06;;;21.54;45.23
5952;BME280;3001;42.622;23.194;2023-05-01T12:35:35;91440.75;;;21.46;45.03
5952;BME280;3001;42.622;23.194;2023-05-01T12:38:10;91448.34;;;21.14;43.22
5952;BME280;3001;42.622;23.194;2023-05-01T12:40:38;91442.09;;;21.00;44.30
5952;BME280;3001;42.622;23.194;2023-05-01T12:43:05;91451.88;;;20.96;45.20
5952;BME280;3001;42.622;23.194;2023-05-01T12:45:38;91459.72;;;20.63;44.93
5952;BME280;3001;42.622;23.194;2023-05-01T12:48:10;91448.56;;;20.47;46.15
5952;BME280;3001;42.622;23.194;2023-05-01T12:50:39;91445.47;;;20.19;48.34
5952;BME280;3001;42.622;23.194;2023-05-01T12:53:06;91449.78;;;20.31;48.83
5952;BME280;3001;42.622;23.194;2023-05-01T12:55:43;91443.56;;;20.16;49.60
5952;BME280;3001;42.622;23.194;2023-05-01T12:58:11;91448.31;;;20.07;49.75
5952;BME280;3001;42.622;23.194;2023-05-01T13:00:45;91439.16;;;20.01;51.76
5952;BME280;3001;42.622;23.194;2023-05-01T13:03:14;91426.88;;;19.86;51.66
5952;BME280;3001;42.622;23.194;2023-05-01T13:05:49;91436.19;;;20.03;50.34
5952;BME280;3001;42.622;23.194;2023-05-01T13:08:24;91442.78;;;19.93;47.67
5952;BME280;3001;42.622;23.194;2023-05-01T13:10:54;91454.00;;;20.09;48.66
5952;BME280;3001;42.622;23.194;2023-05-01T13:13:25;91443.00;;;20.04;49.66
5952;BME280;3001;42.622;23.194;2023-05-01T13:15:53;91443.09;;;19.88;51.21
5952;BME280;3001;42.622;23.194;2023-05-01T13:18:20;91449.34;;;19.80;49.17
5952;BME280;3001;42.622;23.194;2023-05-01T13:20:47;91452.97;;;19.72;49.84
5952;BME280;3001;42.622;23.194;2023-05-01T13:23:14;91458.25;;;19.72;50.11
5952;BME280;3001;42.622;23.194;2023-05-01T13:25:41;91457.22;;;19.77;48.16
5952;BME280;3001;42.622;23.194;2023-05-01T13:28:09;91464.19;;;19.88;49.92
5952;BME280;3001;42.622;23.194;2023-05-01T13:30:36;91457.97;;;19.77;50.04